Time;durP1;ratioP1;P1;durP2;ratioP2;P2;SDS_P1;SDS_P2;PMS_P1;PMS_P2;Temp;Humidity;BMP_temperature;BMP_pressure;BME280_temperature;BME280_humidity;BME280_pressure;Samples;Min_cycle;Max_cycle;Signal;HPM_P1;HPM_P2
2023/08/19 00:02:26;;;;;;;5.85;5.35;;;23.80;99.90;;;24.21;100.00;101080.25;5053289;28;20494;-64
2023/08/19 00:04:56;;;;;;;17.25;7.90;;;23.80;99.90;;;24.25;100.00;101076.41;5053289;28;20045;-64
2023/08/19 00:07:24;;;;;;;4.30;3.90;;;23.90;99.90;;;24.24;100.00;101070.13;5055008;28;20068;-64
2023/08/19 00:09:53;;;;;;;3.13;3.03;;;23.90;99.90;;;24.27;100.00;101061.84;5063212;28;20379;-64
2023/08/19 00:12:22;;;;;;;3.70;3.45;;;23.90;99.90;;;24.31;100.00;101068.84;5063386;28;20496;-65
2023/08/19 00:14:54;;;;;;;3.35;3.25;;;23.90;99.90;;;24.41;100.00;101058.34;5062485;28;20055;-64
2023/08/19 00:17:23;;;;;;;2.80;2.70;;;24.00;99.90;;;24.50;100.00;101061.38;5064743;28;20055;-65
2023/08/19 00:19:52;;;;;;;2.63;2.53;;;24.20;99.90;;;24.17;100.00;101002.03;5052979;28;20048;-64
2023/08/19 00:22:21;;;;;;;6.75;5.88;;;24.20;99.90;;;24.45;100.00;101068.88;5052978;28;20041;-65
2023/08/19 00:24:50;;;;;;;6.90;6.13;;;24.20;99.90;;;24.45;100.00;101063.47;5052661;28;20053;-65
2023/08/19 00:27:18;;;;;;;3.78;3.47;;;24.10;99.90;;;24.46;100.00;101050.81;5054544;28;20126;-65
2023/08/19 00:29:47;;;;;;;4.30;3.97;;;24.10;99.90;;;24.42;100.00;101060.06;5070026;28;20481;-65
2023/08/19 00:32:15;;;;;;;9.05;3.55;;;24.10;99.90;;;24.43;100.00;101059.13;5058598;28;20055;-65
2023/08/19 00:34:44;;;;;;;6.38;5.80;;;24.10;99.90;;;24.41;100.00;101047.53;5079095;28;20045;-64
2023/08/19 00:37:12;;;;;;;7.35;6.60;;;24.10;99.90;;;24.37;100.00;101048.66;5068761;28;20049;-65
2023/08/19 00:39:42;;;;;;;4.10;3.78;;;24.00;99.90;;;24.33;100.00;101039.00;5064319;28;20036;-65
2023/08/19 00:42:11;;;;;;;3.47;3.17;;;24.00;99.90;;;24.38;100.00;101039.56;5060771;28;20053;-65
2023/08/19 00:44:39;;;;;;;12.35;6.05;;;24.00;99.90;;;23.94;100.00;100959.19;5059891;28;20072;-65
2023/08/19 00:47:08;;;;;;;9.25;5.60;;;24.10;99.90;;;24.47;100.00;101034.50;5063941;28;20047;-65
2023/08/19 00:49:36;;;;;;;7.53;4.88;;;24.10;99.90;;;24.43;100.00;101032.94;5062026;28;20040;-65
2023/08/19 00:52:06;;;;;;;2.95;2.85;;;24.10;99.90;;;24.45;100.00;101033.72;5062968;28;20040;-64
2023/08/19 00:54:34;;;;;;;4.65;4.25;;;24.10;99.90;;;24.48;100.00;101035.38;5057915;28;20139;-64
2023/08/19 00:57:05;;;;;;;14.68;6.20;;;24.10;99.90;;;24.46;100.00;101034.59;5062906;28;20147;-64
2023/08/19 00:59:33;;;;;;;4.43;4.13;;;24.10;99.90;;;24.55;100.00;101036.75;5061298;28;20037;-64
2023/08/19 01:02:03;;;;;;;2.60;2.50;;;24.20;99.90;;;24.64;100.00;101028.94;5063811;28;20555;-65
2023/08/19 01:04:31;;;;;;;5.00;4.53;;;24.30;99.90;;;24.64;100.00;101025.41;5060484;28;20502;-65
2023/08/19 01:07:09;;;;;;;5.97;5.50;;;24.30;99.90;;;24.59;100.00;101017.53;5061020;28;20049;-65
2023/08/19 01:09:45;;;;;;;3.10;2.90;;;24.20;99.90;;;24.67;100.00;101019.78;5062748;28;20037;-65
2023/08/19 01:12:24;;;;;;;2.45;2.35;;;24.30;99.90;;;24.74;100.00;101023.88;5064028;28;20144;-65
2023/08/19 01:15:05;;;;;;;5.45;3.03;;;24.40;99.90;;;24.82;100.00;101025.19;5061630;28;20041;-65
2023/08/19 01:17:33;;;;;;;;;;;24.40;99.90;;;24.90;100.00;101019.28;5061769;28;20132;-65
2023/08/19 01:20:03;;;;;;;2.20;2.10;;;24.50;99.90;;;24.98;100.00;101017.88;5064299;28;19967;-65
2023/08/19 01:22:40;;;;;;;1.83;1.80;;;24.60;99.90;;;25.19;100.00;101022.91;5051203;28;20045;-65
2023/08/19 01:25:11;;;;;;;2.72;2.55;;;24.80;99.90;;;25.30;100.00;101018.56;5067529;28;20057;-65
2023/08/19 01:27:40;;;;;;;2.13;2.03;;;25.00;99.90;;;25.40;100.00;101011.63;5052520;28;20041;-65
2023/08/19 01:30:10;;;;;;;2.08;1.98;;;25.20;99.90;;;25.41;100.00;101031.47;5055121;28;20041;-65
2023/08/19 01:32:39;;;;;;;2.10;2.00;;;25.20;99.90;;;25.47;100.00;101017.53;5067875;28;20052;-66
2023/08/19 01:35:08;;;;;;;2.20;2.10;;;25.20;99.90;;;25.55;100.00;101021.50;5060523;28;20472;-65
2023/08/19 01:37:45;;;;;;;1.70;1.70;;;25.20;99.90;;;25.52;100.00;101021.69;5061065;28;20410;-65
2023/08/19 01:40:16;;;;;;;1.83;1.83;;;25.30;99.90;;;25.50;100.00;101020.03;5077744;28;20048;-65
2023/08/19 01:42:45;;;;;;;2.00;1.90;;;25.20;99.90;;;25.49;100.00;101013.75;5063122;28;20059;-65
2023/08/19 01:45:14;;;;;;;2.08;1.98;;;25.20;99.90;;;25.45;100.00;101014.94;5061022;28;20045;-66
2023/08/19 01:47:43;;;;;;;2.25;2.15;;;25.20;99.90;;;25.42;100.00;101017.81;5063953;28;20040;-65
2023/08/19 01:50:12;;;;;;;3.97;3.70;;;25.20;99.90;;;25.51;100.00;101022.66;5059179;28;20051;-65
2023/08/19 01:52:40;;;;;;;8.02;4.97;;;25.20;99.90;;;25.50;100.00;101011.91;5063288;28;20446;-65
2023/08/19 01:55:10;;;;;;;2.40;2.30;;;25.20;99.90;;;25.47;100.00;101007.59;5056556;28;20466;-65
2023/08/19 01:57:40;;;;;;;2.22;2.13;;;25.20;99.90;;;25.46;100.00;101013.06;5077123;28;20083;-66
2023/08/19 02:00:09;;;;;;;2.20;2.10;;;25.20;99.90;;;25.35;100.00;101007.44;5068935;28;20383;-65
2023/08/19 02:02:43;;;;;;;2.17;2.08;;;25.10;99.90;;;25.41;100.00;101013.38;5063559;28;20159;-65
2023/08/19 02:05:14;;;;;;;1.98;1.88;;;25.10;99.90;;;25.38;100.00;101002.69;5060380;28;20044;-65
2023/08/19 02:07:43;;;;;;;3.13;3.00;;;25.10;99.90;;;25.29;100.00;101003.28;5064557;28;20387;-65
2023/08/19 02:10:12;;;;;;;7.93;7.35;;;25.00;99.90;;;25.27;100.00;100997.09;5069926;28;20044;-65
2023/08/19 02:12:42;;;;;;;1.92;1.83;;;25.00;99.90;;;25.31;100.00;100992.34;5060336;28;20041;-66
2023/08/19 02:15:10;;;;;;;2.47;2.38;;;25.00;99.90;;;25.31;100.00;100992.34;5065818;28;20045;-65
2023/08/19 02:17:39;;;;;;;2.25;2.15;;;25.00;99.90;;;25.29;100.00;100997.00;5072014;28;20056;-65
2023/08/19 02:20:09;;;;;;;2.70;2.60;;;25.00;99.90;;;25.25;100.00;100992.72;5061748;28;20059;-66
2023/08/19 02:22:39;;;;;;;2.97;2.83;;;24.90;99.90;;;25.15;100.00;100983.44;5067063;28;20071;-65
2023/08/19 02:25:09;;;;;;;5.35;4.13;;;24.90;99.90;;;25.08;100.00;100987.50;5063120;28;20057;-65
2023/08/19 02:27:38;;;;;;;3.35;3.15;;;24.70;99.90;;;24.78;100.00;100942.44;5063587;28;20064;-65
2023/08/19 02:30:11;;;;;;;3.13;2.92;;;24.60;99.90;;;24.94;100.00;100985.66;5066203;28;20048;-65
2023/08/19 02:32:40;;;;;;;4.70;4.38;;;24.50;99.90;;;24.85;100.00;100983.53;5064914;28;20071;-65
2023/08/19 02:35:10;;;;;;;4.43;4.07;;;24.50;99.90;;;24.84;100.00;100989.88;5064616;28;20049;-65
2023/08/19 02:37:38;;;;;;;4.47;4.13;;;24.40;99.90;;;24.77;100.00;100978.59;5066268;28;20071;-65
2023/08/19 02:40:08;;;;;;;5.65;5.20;;;24.40;99.90;;;24.70;100.00;100965.50;5070602;28;20102;-65
2023/08/19 02:42:39;;;;;;;7.07;6.18;;;24.30;99.90;;;24.66;100.00;100977.47;5063096;28;20486;-65
2023/08/19 02:45:10;;;;;;;5.00;4.60;;;24.30;99.90;;;24.66;100.00;100956.66;5066100;28;20124;-65
2023/08/19 02:47:40;;;;;;;3.20;3.10;;;24.30;99.90;;;24.75;100.00;100963.41;5063306;28;20060;-65
2023/08/19 02:50:09;;;;;;;3.00;2.85;;;24.30;99.90;;;24.80;100.00;100955.84;5071937;28;20052;-64
2023/08/19 02:52:37;;;;;;;4.32;3.92;;;24.40;99.90;;;24.78;100.00;100955.97;5065324;28;20076;-65
2023/08/19 02:55:07;;;;;;;5.93;5.28;;;24.40;99.90;;;24.77;100.00;100956.06;5070917;28;20536;-65
2023/08/19 02:57:35;;;;;;;4.95;4.38;;;24.40;99.90;;;24.75;100.00;100958.88;5066227;28;20075;-65
2023/08/19 03:00:06;;;;;;;3.08;2.90;;;24.40;99.90;;;24.75;100.00;100934.50;5070252;28;20481;-65
2023/08/19 03:02:36;;;;;;;4.28;3.97;;;24.40;99.90;;;24.85;100.00;100924.00;5054779;28;20383;-65
2023/08/19 03:05:06;;;;;;;3.80;3.53;;;24.40;99.90;;;25.02;100.00;100921.09;5054512;28;20094;-65
2023/08/19 03:07:34;;;;;;;3.42;3.13;;;24.60;99.90;;;24.98;100.00;100933.06;5053087;28;20049;-65
2023/08/19 03:10:03;;;;;;;6.20;5.00;;;24.70;99.90;;;25.03;100.00;100926.41;5054625;28;20095;-65
2023/08/19 03:12:32;;;;;;;3.35;3.15;;;24.70;99.90;;;24.93;100.00;100918.97;5062796;28;20055;-65
2023/08/19 03:15:00;;;;;;;18.08;6.43;;;24.60;99.90;;;24.91;100.00;100934.44;5065271;28;20149;-65
2023/08/19 03:17:29;;;;;;;2.20;2.10;;;24.60;99.90;;;25.04;100.00;100965.19;5070156;28;20106;-65
2023/08/19 03:19:59;;;;;;;3.10;2.90;;;24.60;99.90;;;25.27;100.00;100961.88;5066027;28;20048;-65
2023/08/19 03:22:28;;;;;;;2.33;2.22;;;24.80;99.90;;;25.24;100.00;100945.81;5061229;28;20053;-65
2023/08/19 03:25:00;;;;;;;2.47;2.38;;;25.00;99.90;;;25.32;100.00;100959.75;5071884;28;20110;-65
2023/08/19 03:27:28;;;;;;;2.47;2.33;;;25.00;99.90;;;25.43;100.00;100959.09;5058756;28;20072;-64
2023/08/19 03:29:56;;;;;;;1.92;1.85;;;25.10;99.90;;;25.44;100.00;100963.53;5064334;28;20045;-65
2023/08/19 03:32:25;;;;;;;2.97;2.78;;;25.20;99.90;;;25.42;100.00;100966.34;5063711;28;20551;-65
2023/08/19 03:34:53;;;;;;;2.95;2.85;;;25.20;99.90;;;25.40;100.00;100968.28;5060087;28;20051;-65
2023/08/19 03:37:25;;;;;;;5.85;3.95;;;25.20;99.90;;;25.21;100.00;100962.28;5080541;28;20059;-65
2023/08/19 03:39:53;;;;;;;4.35;4.05;;;25.00;99.90;;;25.13;100.00;100964.59;5062287;28;20055;-65
2023/08/19 03:42:22;;;;;;;6.03;5.43;;;24.90;99.90;;;25.16;100.00;100960.81;5053715;28;20045;-65
2023/08/19 03:44:50;;;;;;;3.20;3.00;;;24.90;99.90;;;25.14;100.00;100968.19;5053901;28;20107;-65
2023/08/19 03:47:18;;;;;;;3.60;3.40;;;24.90;99.90;;;24.99;100.00;100962.75;5063820;28;20127;-65
2023/08/19 03:49:47;;;;;;;9.70;7.72;;;24.70;99.90;;;24.91;100.00;100965.06;5063075;28;20048;-65
2023/08/19 03:52:15;;;;;;;9.30;5.85;;;24.60;99.90;;;24.96;100.00;100968.38;5057762;28;20539;-65
2023/08/19 03:54:45;;;;;;;3.65;3.35;;;24.70;99.90;;;24.95;100.00;100966.59;5063689;28;20049;-65
2023/08/19 03:57:13;;;;;;;6.47;4.43;;;24.60;99.90;;;24.91;100.00;100965.06;5063193;28;20071;-64
2023/08/19 03:59:42;;;;;;;3.28;3.05;;;24.60;99.90;;;24.87;100.00;100960.78;5059913;28;20299;-65
2023/08/19 04:02:10;;;;;;;7.50;6.20;;;24.60;99.90;;;24.88;100.00;100964.38;5064820;28;20094;-65
2023/08/19 04:04:58;;;;;;;10.77;7.82;;;24.60;99.90;;;24.88;100.00;100961.69;5061961;28;20441;-65
2023/08/19 04:07:27;;;;;;;2.70;2.55;;;24.60;99.90;;;25.00;100.00;100960.91;5063039;28;20486;-64
2023/08/19 04:09:58;;;;;;;4.32;4.03;;;24.60;99.90;;;24.98;100.00;100966.44;5062024;28;20118;-65
2023/08/19 04:12:27;;;;;;;;;;;24.70;99.90;;;24.95;100.00;100963.06;5060616;28;20071;-64
2023/08/19 04:14:55;;;;;;;6.47;4.18;;;24.60;99.90;;;25.01;100.00;100968.06;5063788;28;19921;-64
2023/08/19 04:17:24;;;;;;;3.88;3.63;;;24.70;99.90;;;25.00;100.00;100969.91;5060091;28;20049;-64
2023/08/19 04:19:52;;;;;;;3.58;3.35;;;24.70;99.90;;;24.99;100.00;100967.28;5068641;28;20118;-65
2023/08/19 04:22:21;;;;;;;3.58;2.70;;;24.70;99.90;;;24.96;100.00;100965.66;5058049;28;20072;-65
2023/08/19 04:24:51;;;;;;;2.70;2.60;;;24.70;99.90;;;24.88;100.00;100953.56;5054809;28;20053;-65
2023/08/19 04:27:21;;;;;;;;;;;24.80;99.90;;;25.08;100.00;100972.16;5063222;28;20389;-65
2023/08/19 04:29:50;;;;;;;3.60;3.40;;;24.80;99.90;;;25.06;100.00;100968.66;5063032;28;19927;-64
2023/08/19 04:32:19;;;;;;;4.97;3.05;;;24.80;99.90;;;25.14;100.00;100974.47;5076996;28;20045;-65
2023/08/19 04:34:48;;;;;;;3.08;2.88;;;24.90;99.90;;;24.92;100.00;100939.75;5059405;28;20494;-65
2023/08/19 04:37:16;;;;;;;3.38;3.17;;;24.90;99.90;;;25.21;100.00;100977.66;5065167;28;20581;-65
2023/08/19 04:39:45;;;;;;;2.60;2.50;;;25.00;99.90;;;25.20;100.00;100965.97;5071016;28;20084;-65
2023/08/19 04:42:20;;;;;;;3.97;3.13;;;25.00;99.90;;;25.14;100.00;100968.19;5058389;28;20082;-65
2023/08/19 04:44:49;;;;;;;2.80;2.63;;;25.00;99.90;;;25.11;100.00;100973.75;5063484;28;20056;-65
2023/08/19 04:47:18;;;;;;;3.40;3.10;;;24.90;99.90;;;25.12;100.00;100965.56;5068690;28;20055;-64
2023/08/19 04:49:47;;;;;;;2.20;2.10;;;24.90;99.90;;;25.22;100.00;100974.88;5059635;28;20483;-64
2023/08/19 04:52:16;;;;;;;2.33;2.22;;;25.00;99.90;;;25.22;100.00;100972.16;5076917;28;20052;-64
2023/08/19 04:54:45;;;;;;;4.10;3.88;;;25.00;99.90;;;25.17;100.00;100976.09;5051354;28;20136;-64
2023/08/19 04:57:13;;;;;;;3.13;2.97;;;25.00;99.90;;;25.20;100.00;100971.38;5068187;28;20080;-65
2023/08/19 04:59:43;;;;;;;2.92;2.72;;;25.00;99.90;;;25.17;100.00;100970.69;5057160;28;20076;-64
2023/08/19 05:02:11;;;;;;;2.72;2.63;;;24.90;99.90;;;25.15;100.00;100987.03;5061867;28;20144;-64
2023/08/19 05:04:40;;;;;;;2.15;2.05;;;24.90;99.90;;;25.23;100.00;100992.84;5063467;28;20166;-65
2023/08/19 05:07:10;;;;;;;2.03;1.92;;;25.00;99.90;;;25.36;100.00;100988.38;5068871;28;20056;-65
2023/08/19 05:09:38;;;;;;;2.35;2.25;;;25.10;99.90;;;25.49;100.00;100989.38;5063690;28;20040;-64
2023/08/19 05:12:08;;;;;;;2.10;2.00;;;25.30;99.90;;;25.63;99.74;100983.94;5076775;28;20126;-64
2023/08/19 05:14:36;;;;;;;1.95;1.85;;;25.40;99.90;;;25.76;98.71;100981.31;5059289;28;20458;-64
2023/08/19 05:17:07;;;;;;;2.13;2.03;;;25.50;99.90;;;25.80;98.28;100988.28;5052582;28;20049;-65
2023/08/19 05:19:36;;;;;;;;;;;25.60;99.90;;;25.78;98.06;100987.50;5068477;28;20049;-65
2023/08/19 05:22:04;;;;;;;1.98;1.88;;;25.60;99.90;;;25.79;97.90;100995.53;5052842;28;19927;-65
2023/08/19 05:24:33;;;;;;;1.90;1.80;;;25.60;99.90;;;25.69;98.17;100985.38;5057538;28;20471;-64
2023/08/19 05:27:02;;;;;;;1.60;1.60;;;25.50;99.90;;;25.64;98.55;100992.94;5061464;28;20045;-65
2023/08/19 05:29:31;;;;;;;2.35;2.25;;;25.50;99.90;;;25.60;98.63;100997.69;5061533;28;20401;-65
2023/08/19 05:31:59;;;;;;;3.33;3.13;;;25.40;99.90;;;25.64;98.78;101004.66;5063816;28;20391;-65
2023/08/19 05:34:29;;;;;;;1.85;1.80;;;25.40;99.90;;;25.59;98.69;101003.22;5060926;28;20132;-65
2023/08/19 05:36:57;;;;;;;2.00;1.90;;;25.40;99.90;;;25.62;98.71;101006.59;5052167;28;20048;-65
2023/08/19 05:39:26;;;;;;;2.00;1.90;;;25.40;99.90;;;25.52;99.46;101000.03;5052069;28;20296;-65
2023/08/19 05:41:54;;;;;;;1.65;1.65;;;25.40;99.90;;;25.60;99.51;101007.66;5052070;28;20151;-65
2023/08/19 05:44:22;;;;;;;3.05;2.85;;;25.40;99.90;;;25.62;99.46;101014.72;5061075;28;20058;-65
2023/08/19 05:46:51;;;;;;;1.70;1.70;;;25.40;99.90;;;25.77;99.41;101018.28;5065463;28;20040;-65
2023/08/19 05:49:19;;;;;;;2.33;2.22;;;25.50;99.90;;;25.75;99.31;101017.50;5065719;28;20095;-65
2023/08/19 05:51:49;;;;;;;1.98;1.88;;;25.50;99.90;;;25.54;100.00;101010.75;5065597;28;20090;-65
2023/08/19 05:54:17;;;;;;;2.28;2.17;;;25.50;99.90;;;25.85;99.63;101040.34;5066658;28;20036;-65
2023/08/19 05:56:46;;;;;;;1.98;1.88;;;25.60;99.90;;;25.81;99.28;101034.25;5064504;28;20057;-65
2023/08/19 05:59:14;;;;;;;2.97;2.88;;;25.60;99.90;;;25.77;99.51;101024.56;5067184;28;20044;-65
2023/08/19 06:01:43;;;;;;;2.00;1.90;;;25.60;99.90;;;25.79;99.85;101029.88;5063654;28;20131;-65
2023/08/19 06:04:11;;;;;;;2.60;2.50;;;25.60;99.90;;;25.80;99.68;101027.06;5055607;28;20102;-65
2023/08/19 06:06:39;;;;;;;2.17;2.08;;;25.70;99.90;;;25.76;99.84;101036.38;5062218;28;20094;-65
2023/08/19 06:09:09;;;;;;;3.55;2.35;;;25.60;99.90;;;25.89;99.76;101047.31;5055757;28;20049;-65
2023/08/19 06:11:48;;;;;;;2.13;2.03;;;25.70;99.90;;;26.00;98.97;101047.47;5055563;28;20114;-64
2023/08/19 06:14:17;;;;;;;1.60;1.60;;;25.80;99.90;;;26.14;98.76;101054.72;5063348;28;20049;-64
2023/08/19 06:16:46;;;;;;;1.60;1.60;;;25.90;99.90;;;26.17;98.22;101051.84;5067057;28;20058;-65
2023/08/19 06:19:15;;;;;;;1.60;1.60;;;26.00;99.90;;;26.25;98.05;101065.78;5063714;28;20049;-65
2023/08/19 06:21:44;;;;;;;1.60;1.60;;;26.10;99.90;;;26.27;97.29;101048.41;5066708;28;20295;-65
2023/08/19 06:24:14;;;;;;;2.45;2.35;;;26.10;99.90;;;26.36;96.51;101057.78;5060005;28;20053;-65
2023/08/19 06:26:42;;;;;;;1.90;1.88;;;26.20;99.90;;;26.41;95.76;101061.03;5065145;28;20045;-65
2023/08/19 06:29:11;;;;;;;1.80;1.80;;;26.20;99.90;;;26.33;95.75;101053.41;5065300;28;20036;-65
2023/08/19 06:31:40;;;;;;;1.50;1.50;;;26.10;99.90;;;26.40;95.87;101070.16;5065550;28;20075;-65
2023/08/19 06:34:09;;;;;;;1.50;1.50;;;26.20;99.90;;;26.44;95.33;101071.72;5063952;28;20079;-65
2023/08/19 06:36:42;;;;;;;1.80;1.80;;;26.20;99.90;;;26.50;94.99;101063.16;5066523;28;20044;-68
2023/08/19 06:39:19;;;;;;;1.48;1.48;;;26.20;99.90;;;26.60;94.46;101073.28;5063854;28;20045;-69
2023/08/19 06:41:55;;;;;;;1.50;1.50;;;26.30;99.90;;;26.63;94.17;101074.94;5064898;28;20063;-65
2023/08/19 06:44:25;;;;;;;1.70;1.70;;;26.40;99.90;;;26.63;94.35;101081.22;5066744;28;20052;-66
2023/08/19 06:46:56;;;;;;;1.40;1.40;;;26.40;99.90;;;25.77;94.14;100939.66;5055370;28;20052;-65
2023/08/19 06:49:25;;;;;;;1.80;1.80;;;26.40;99.90;;;26.70;93.94;101089.84;5063507;28;20114;-65
2023/08/19 06:51:54;;;;;;;2.33;2.22;;;26.40;99.90;;;26.75;93.52;101083.13;5065311;28;20480;-66
2023/08/19 06:54:25;;;;;;;1.88;1.77;;;26.50;99.90;;;26.83;93.39;101085.31;5064562;28;20437;-66
2023/08/19 06:56:58;;;;;;;;;;;26.60;99.90;;;26.87;93.06;101086.84;5064297;28;20412;-65
2023/08/19 06:59:36;;;;;;;1.50;1.50;;;26.60;99.90;;;26.93;92.66;101090.97;5066117;28;19920;-67
2023/08/19 07:02:08;;;;;;;1.60;1.60;;;26.70;99.90;;;26.94;92.71;101096.34;5060443;28;20080;-67
2023/08/19 07:04:37;;;;;;;1.40;1.40;;;26.70;99.90;;;26.99;92.49;101110.47;5064863;28;20493;-67
2023/08/19 07:07:09;;;;;;;1.70;1.70;;;26.70;99.90;;;27.04;92.28;101105.56;5064786;28;20498;-66
2023/08/19 07:09:39;;;;;;;1.58;1.58;;;26.80;99.90;;;27.04;92.02;101115.59;5063134;28;20041;-65
2023/08/19 07:12:10;;;;;;;1.40;1.40;;;26.80;99.90;;;27.09;92.04;101127.00;5066203;28;20052;-65
2023/08/19 07:14:40;;;;;;;1.50;1.50;;;26.80;99.90;;;26.91;92.16;101110.09;5054304;28;20091;-65
2023/08/19 07:17:10;;;;;;;1.55;1.55;;;26.80;99.90;;;27.07;92.56;101148.84;5064062;28;20044;-66
2023/08/19 07:19:40;;;;;;;1.50;1.50;;;26.80;99.90;;;27.12;92.29;101135.78;5054131;28;20071;-65
2023/08/19 07:22:09;;;;;;;2.10;2.00;;;26.80;99.90;;;27.10;91.98;101107.88;5054338;28;20510;-67
2023/08/19 07:24:42;;;;;;;3.03;2.83;;;26.90;99.90;;;27.14;92.11;101105.84;5058146;28;20045;-65
2023/08/19 07:27:14;;;;;;;1.42;1.42;;;26.80;99.90;;;27.21;91.91;101105.31;5060539;28;20053;-66
2023/08/19 07:29:43;;;;;;;1.48;1.48;;;26.90;99.90;;;27.24;91.67;101129.53;5062927;28;20063;-78
2023/08/19 07:32:14;;;;;;;2.67;2.58;;;26.90;99.90;;;27.20;92.07;101132.53;5064960;28;20062;-66
2023/08/19 07:34:42;;;;;;;2.10;2.00;;;26.90;99.90;;;27.13;92.56;101133.97;5063682;28;20068;-66
2023/08/19 07:37:10;;;;;;;1.27;1.27;;;26.90;99.90;;;27.02;93.12;101133.84;5070518;28;20049;-66
2023/08/19 07:39:40;;;;;;;1.70;1.70;;;26.70;99.90;;;27.00;92.88;101139.38;5064368;28;20045;-69
2023/08/19 07:42:09;;;;;;;2.58;2.38;;;26.70;99.90;;;27.01;92.58;101154.69;5062511;28;20127;-67
2023/08/19 07:44:38;;;;;;;1.33;1.33;;;26.80;99.90;;;27.00;93.09;101158.38;5065208;28;20045;-67
2023/08/19 07:47:06;;;;;;;1.52;1.52;;;26.80;99.90;;;27.00;92.40;101165.66;5061880;28;20049;-68
2023/08/19 07:49:34;;;;;;;1.50;1.50;;;26.80;99.90;;;27.01;91.69;101170.97;5053867;28;20044;-67
2023/08/19 07:52:03;;;;;;;1.48;1.48;;;26.80;99.90;;;27.04;91.76;101187.06;5053749;28;20099;-67
2023/08/19 07:54:31;;;;;;;1.80;1.70;;;26.80;99.90;;;27.03;91.68;101177.19;5053400;28;20102;-66
2023/08/19 07:57:01;;;;;;;1.60;1.60;;;26.80;99.90;;;27.15;92.40;101180.91;5053673;28;20048;-66
2023/08/19 07:59:29;;;;;;;1.77;1.77;;;26.90;99.90;;;27.27;92.15;101183.69;5061735;28;20052;-66
2023/08/19 08:01:58;;;;;;;1.40;1.40;;;27.00;99.90;;;27.43;91.39;101180.78;5063698;28;20037;-66
2023/08/19 08:04:26;;;;;;;1.75;1.75;;;27.10;99.90;;;27.54;90.06;101183.63;5062819;28;20105;-66
2023/08/19 08:06:55;;;;;;;1.30;1.30;;;27.30;99.90;;;27.71;88.64;101185.16;5064217;28;20082;-66
2023/08/19 08:09:24;;;;;;;2.03;1.92;;;27.50;99.90;;;27.90;87.97;101188.31;5060856;28;20045;-67
2023/08/19 08:11:53;;;;;;;2.60;2.40;;;27.60;99.90;;;28.04;86.81;101191.84;5056881;28;20406;-66
2023/08/19 08:14:22;;;;;;;1.27;1.27;;;27.80;99.90;;;28.21;86.11;101204.22;5068030;28;20044;-66
2023/08/19 08:16:51;;;;;;;1.60;1.60;;;28.00;99.90;;;28.44;86.05;101203.41;5062300;28;20102;-67
2023/08/19 08:19:22;;;;;;;1.95;1.80;;;28.30;99.90;;;28.66;84.91;101214.50;5063675;28;20098;-66
2023/08/19 08:21:50;;;;;;;1.92;1.83;;;28.50;99.90;;;28.74;82.38;101233.88;5062833;28;20045;-66
2023/08/19 08:24:18;;;;;;;2.30;2.20;;;28.60;99.90;;;28.77;81.05;101232.75;5062369;28;20037;-66
2023/08/19 08:26:47;;;;;;;7.10;2.28;;;28.70;99.90;;;28.80;79.93;101246.16;5063315;28;20088;-66
2023/08/19 08:29:15;;;;;;;3.28;3.05;;;28.60;99.90;;;28.93;79.06;101239.69;5061397;28;20494;-66
2023/08/19 08:31:45;;;;;;;2.13;2.03;;;28.80;99.90;;;28.93;77.95;101236.09;5064626;28;20037;-66
2023/08/19 08:34:14;;;;;;;1.48;1.48;;;28.80;99.90;;;28.88;76.86;101241.88;5061268;28;20045;-66
2023/08/19 08:36:42;;;;;;;4.97;2.20;;;28.70;99.90;;;28.95;76.88;101255.94;5064048;28;20123;-66
2023/08/19 08:39:10;;;;;;;1.75;1.73;;;28.80;99.90;;;28.93;76.15;101260.63;5061759;28;20076;-66
2023/08/19 08:41:40;;;;;;;2.22;2.13;;;28.70;99.90;;;29.04;75.64;101258.81;5063355;28;20044;-66
2023/08/19 08:44:08;;;;;;;1.95;1.85;;;28.90;99.90;;;29.16;74.60;101268.84;5062400;28;20052;-66
2023/08/19 08:46:39;;;;;;;1.33;1.33;;;29.00;99.90;;;29.23;73.90;101266.50;5062400;28;20052;-66
2023/08/19 08:49:10;;;;;;;1.15;1.15;;;29.10;99.90;;;29.34;73.58;101264.75;5063329;28;20432;-66
2023/08/19 08:51:39;;;;;;;1.20;1.20;;;29.20;99.90;;;29.25;73.64;101273.59;5060894;28;20053;-66
2023/08/19 08:54:08;;;;;;;1.30;1.30;;;29.10;99.90;;;29.27;73.56;101287.97;5060307;28;20079;-66
2023/08/19 08:56:36;;;;;;;3.03;1.75;;;29.10;99.90;;;29.34;73.01;101294.72;5067881;28;20491;-66
2023/08/19 08:59:05;;;;;;;1.27;1.27;;;29.20;99.90;;;29.42;72.47;101304.19;5052628;28;20447;-66
2023/08/19 09:01:34;;;;;;;1.77;1.67;;;29.30;99.90;;;29.39;71.07;101303.41;5057176;28;20493;-66
2023/08/19 09:04:06;;;;;;;1.25;1.25;;;29.30;99.90;;;29.53;69.77;101306.94;5056407;28;20131;-66
2023/08/19 09:06:38;;;;;;;2.35;1.65;;;29.40;99.90;;;29.66;68.79;101305.00;5075266;28;20106;-66
2023/08/19 09:09:11;;;;;;;1.00;1.00;;;29.50;99.90;;;29.61;66.92;101318.16;5063940;28;20055;-66
2023/08/19 09:11:44;;;;;;;1.30;1.30;;;29.50;99.90;;;29.59;66.06;101323.72;5060815;28;20046;-65
2023/08/19 09:14:24;;;;;;;1.20;1.20;;;29.50;99.90;;;29.53;66.21;101328.75;5062117;28;20040;-66
2023/08/19 09:16:52;;;;;;;1.30;1.30;;;29.40;99.90;;;29.38;65.05;101333.53;5063600;28;20508;-66
2023/08/19 09:19:21;;;;;;;1.48;1.48;;;29.30;99.90;;;29.42;64.59;101336.91;5060615;28;20063;-66
2023/08/19 09:21:50;;;;;;;1.85;1.75;;;29.30;99.90;;;29.44;64.59;101341.25;5056279;28;20471;-66
2023/08/19 09:24:19;;;;;;;1.40;1.40;;;29.30;99.90;;;29.60;64.11;101351.88;5066506;28;20080;-66
2023/08/19 09:26:55;;;;;;;1.58;1.58;;;29.40;99.90;;;29.77;64.07;101365.13;5056020;28;20380;-66
2023/08/19 09:29:24;;;;;;;1.10;1.10;;;29.60;99.90;;;29.80;63.69;101357.56;5062789;28;20126;-66
2023/08/19 09:31:54;;;;;;;1.10;1.10;;;29.60;99.90;;;29.88;63.83;101362.44;5065161;28;20122;-66
2023/08/19 09:34:22;;;;;;;1.13;1.13;;;29.70;99.90;;;29.93;63.35;101368.41;5067675;28;20048;-66
2023/08/19 09:36:56;;;;;;;1.17;1.17;;;29.80;99.90;;;29.94;63.04;101371.03;5071598;28;20788;-66
2023/08/19 09:39:34;;;;;;;1.20;1.20;;;29.80;99.90;;;29.99;63.03;101362.47;5056006;28;20045;-66
2023/08/19 09:42:02;;;;;;;1.05;1.05;;;29.80;99.90;;;29.85;63.00;101368.16;5056173;28;20045;-66
2023/08/19 09:44:31;;;;;;;1.20;1.20;;;29.70;99.90;;;29.83;63.92;101378.31;5062757;28;20366;-66
2023/08/19 09:47:03;;;;;;;1.13;1.13;;;29.60;99.90;;;29.63;65.24;101395.28;5055583;28;20083;-67
2023/08/19 09:49:36;;;;;;;1.33;1.33;;;29.40;99.90;;;29.42;66.01;101395.03;5064471;28;20103;-66
2023/08/19 09:52:06;;;;;;;1.20;1.20;;;29.20;99.90;;;29.33;66.70;101382.94;5066521;28;20105;-67
2023/08/19 09:54:35;;;;;;;;;;;29.10;99.90;;;29.16;67.43;101390.63;5066232;28;20051;-67
2023/08/19 09:57:04;;;;;;;1.27;1.27;;;29.00;99.90;;;29.05;67.80;101388.66;5065247;28;19963;-67
2023/08/19 09:59:32;;;;;;;1.25;1.25;;;28.80;99.90;;;28.97;68.62;101390.19;5061917;28;20122;-67
2023/08/19 10:02:01;;;;;;;1.00;1.00;;;28.70;99.90;;;28.85;69.11;101399.25;5067343;28;20041;-67
2023/08/19 10:04:30;;;;;;;1.40;1.40;;;28.60;99.90;;;28.55;69.60;101377.81;5063958;28;20045;-67
2023/08/19 10:07:01;;;;;;;1.17;1.17;;;28.50;99.90;;;28.65;70.03;101403.38;5064122;28;20052;-67
2023/08/19 10:09:32;;;;;;;1.38;1.38;;;28.40;99.90;;;28.61;70.58;101403.72;5066977;28;20044;-67
2023/08/19 10:12:02;;;;;;;1.20;1.20;;;28.30;99.90;;;28.57;70.73;101413.09;5065009;28;20483;-67
2023/08/19 10:14:32;;;;;;;1.20;1.20;;;28.30;99.90;;;28.47;71.32;101412.84;5065390;28;20098;-67
2023/08/19 10:17:05;;;;;;;1.60;1.60;;;28.20;99.90;;;28.38;72.10;101424.34;5078344;28;20083;-67
2023/08/19 10:19:43;;;;;;;1.20;1.20;;;28.10;99.90;;;28.36;72.73;101426.31;5066780;28;20057;-67
2023/08/19 10:22:15;;;;;;;1.02;1.02;;;28.10;99.90;;;28.42;73.34;101434.06;5065267;28;20053;-67